College Park, Georgia
Current Conditions -  °F | °C
As of 3:52 AM on Thursday 27 Nov 2014 (Local Time) from KATL Reporting Station
Few Clouds Few Clouds  
Wind Chill: 38°   Ceiling: Unl
Heat Index: 44°   Visibility: 10mi
Dew Point: 24°   Wind: 13mph
Humidity: 45%   Direction: 290°WNW
Pressure: 30.12"   Gusts: 23mph
Location:  33.64°N, 84.47°W
Report Text: KATL 270852Z 29011G20KT 10SM FEW065 07/M04 A3012 RMK AO2 SLP202 T00671044 53018
Loading
Personal Weather Stations






























Interactive Weather Map New forecast layout! Learn more

10-Day Weather Forecast

Advertisements
Track Severe Weather on mobile